Nearby METAR Reports

 

KOXC - Oxford/Waterbury, Connecticut, USA
Distance from station: SE 8mi, 12km
Updated: Thu, 25-Feb-2021 2:51am EST
Few Clouds
Few Clouds
 Wind from WNW
Wind: WNW 10 mph , 17 km/h, Gust: 21 mph , 33 km/h
Temperature: 45°F , 7°C
Wind Chill: 40°F , 4°C
Dew Point: 34°F , 1°C
Humidity: 66%
Barometer: 29.74 inHg , 1007.1 hPa
Clouds: Few Clouds
Visibility: 10 miles , 16 km
Cloud details: Few Clouds 4900 ft
2021/02/25 07:51 KOXC 250751Z AUTO 29009G18KT 250V330 10SM FEW049 07/01 A2974 RMK AO2 SLP084 T00720006
KDXR - Danbury, Connecticut, USA
Distance from station: SW 19mi, 30km
Updated: Thu, 25-Feb-2021 2:53am EST
Few Clouds
Few Clouds
 Wind from W
Wind: W 9 mph , 15 km/h, Gust: 24 mph , 39 km/h
Temperature: 48°F , 9°C
Wind Chill: 44°F , 7°C
Dew Point: 30°F , -1°C
Humidity: 50%
Barometer: 29.78 inHg , 1008.5 hPa
Clouds: Few Clouds
Visibility: 10 miles , 16 km
Cloud details: Few Clouds 4900 ft
2021/02/25 07:53 KDXR 250753Z AUTO 28008G21KT 10SM FEW049 09/M01 A2978 RMK AO2 SLP082 T00941011
 
KMMK - Meriden, Connecticut, USA
Distance from station: E 20mi, 33km
Updated: Thu, 25-Feb-2021 2:53am EST
Clear
Clear
 Wind from varies
Wind: varies 7 mph , 11 km/h
Temperature: 48°F , 9°C
Wind Chill: 45°F , 7°C
Dew Point: 32°F , 0°C
Humidity: 54%
Barometer: 29.73 inHg , 1006.8 hPa
Clouds: Clear
Visibility: 10 miles , 16 km
2021/02/25 07:53 KMMK 250753Z AUTO VRB06KT 10SM CLR 09/00 A2973 RMK AO2 SLP067 T00890000
KBDR - Bridgeport, Connecticut, USA
Distance from station: S 27mi, 44km
Updated: Thu, 25-Feb-2021 2:52am EST
Clear
Clear
 Wind from W
Wind: W 8 mph , 13 km/h
Temperature: 43°F , 6°C
Wind Chill: 38°F , 3°C
Dew Point: 36°F , 2°C
Humidity: 76%
Barometer: 29.75 inHg , 1007.5 hPa
Clouds: Clear
Visibility: 10 miles , 16 km
2021/02/25 07:52 KBDR 250752Z AUTO 26007KT 10SM CLR 06/02 A2975 RMK AO2 SLP074 T00610017
 
KHVN - New Haven/Tweed, Connecticut, USA
Distance from station: SE 27mi, 44km
Updated: Thu, 25-Feb-2021 2:53am EST
Clear
Clear
 Wind from WSW
Wind: WSW 7 mph , 11 km/h
Temperature: 45°F , 7°C
Wind Chill: 41°F , 5°C
Dew Point: 36°F , 2°C
Humidity: 71%
Barometer: 29.74 inHg , 1007.1 hPa
Clouds: Clear
Visibility: 10 miles , 16 km
2021/02/25 07:53 KHVN 250753Z AUTO 24006KT 10SM CLR 07/02 A2974 RMK AO2 SLP069 T00720022
KHFD - Hartford/Brainar, Connecticut, USA
Distance from station: ENE 32mi, 52km
Updated: Thu, 25-Feb-2021 2:53am EST
Few Clouds
Few Clouds
 Wind from W
Wind: W 7 mph , 11 km/h
Temperature: 48°F , 9°C
Wind Chill: 45°F , 7°C
Dew Point: 32°F , 0°C
Humidity: 54%
Barometer: 29.73 inHg , 1006.8 hPa
Clouds: Few Clouds
Visibility: 10 miles , 16 km
Cloud details: Few Clouds 6000 ft
2021/02/25 07:53 KHFD 250753Z AUTO 27006KT 10SM FEW060 09/00 A2973 RMK AO2 SLP066 T00890000
 
KPOU - Poughkeepsie, New York, USA
Distance from station: W 35mi, 56km
Updated: Thu, 25-Feb-2021 2:53am EST
Clear
Clear
 Wind from W
Wind: W 16 mph , 26 km/h, Gust: 24 mph , 39 km/h
Temperature: 46°F , 8°C
Wind Chill: 39°F , 4°C
Dew Point: 27°F , -3°C
Humidity: 46%
Barometer: 29.79 inHg , 1008.8 hPa
Clouds: Clear
Visibility: 10 miles , 16 km
2021/02/25 07:53 KPOU 250753Z 27014G21KT 10SM CLR 08/M03 A2979 RMK AO2 PK WND 27030/0700 SLP084 T00831033
KBDL - Windsor Locks, Connecticut, USA
Distance from station: NE 38mi, 62km
Updated: Thu, 25-Feb-2021 2:51am EST
Few Clouds
Few Clouds
 Wind from WNW
Wind: WNW 18 mph , 30 km/h, Gust: 25 mph , 41 km/h
Temperature: 45°F , 7°C
Wind Chill: 37°F , 3°C
Dew Point: 28°F , -2°C
Humidity: 53%
Barometer: 29.72 inHg , 1006.4 hPa
Clouds: Few Clouds
Visibility: 10 miles , 16 km
Cloud details: Few Clouds 4700 ft
Few Clouds 6500 ft
2021/02/25 07:51 KBDL 250751Z 30016G22KT 10SM FEW047 FEW065 07/M02 A2972 RMK AO2 SLP064 T00721017
 
KSNC - Chester, Connecticut, USA
Distance from station: ESE 39mi, 63km
Updated: Thu, 25-Feb-2021 3:15am EST
Clear
Clear
 Wind from WNW
Wind: WNW 9 mph , 15 km/h
Temperature: 43°F , 6°C
Wind Chill: 38°F , 3°C
Dew Point: 36°F , 2°C
Humidity: 76%
Barometer: 29.73 inHg , 1006.8 hPa
Clouds: Clear
Visibility: 10 miles , 16 km
2021/02/25 08:15 KSNC 250815Z AUTO 30008KT 10SM CLR 06/02 A2973 RMK AO2
KHPN - White Plains, New York, USA
Distance from station: SW 42mi, 67km
Updated: Thu, 25-Feb-2021 2:56am EST
Few Clouds
Few Clouds
 Wind from WNW
Wind: WNW 15 mph , 24 km/h, Gust: 23 mph , 37 km/h
Temperature: 46°F , 8°C
Wind Chill: 40°F , 4°C
Dew Point: 32°F , 0°C
Humidity: 57%
Barometer: 29.77 inHg , 1008.1 hPa
Clouds: Few Clouds
Visibility: 10 miles , 16 km
Cloud details: Few Clouds 8000 ft
2021/02/25 07:56 KHPN 250756Z 29013G20KT 10SM FEW080 08/00 A2977 RMK AO2 SLP084 T00780000 $
 
KSWF - Newburgh/Stewart, New York, USA
Distance from station: W 45mi, 72km
Updated: Thu, 25-Feb-2021 2:45am EST
Partly cloudy
Partly cloudy
 Wind from WNW
Wind: WNW 28 mph , 44 km/h, Gust: 37 mph , 59 km/h
Temperature: 45°F , 7°C
Wind Chill: 36°F , 2°C
Dew Point: 28°F , -2°C
Humidity: 53%
Barometer: 29.79 inHg , 1008.8 hPa
Clouds: Partly cloudy
Visibility: 10 miles , 16 km
Cloud details: Partly cloudy 5000 ft
2021/02/25 07:45 KSWF 250745Z 30024G32KT 10SM SCT050 07/M02 A2979
KBAF - Westfield, Massachusetts, USA
Distance from station: NNE 50mi, 80km
Updated: Thu, 25-Feb-2021 2:53am EST
Clear
Clear
 Wind from W
Wind: W 12 mph , 19 km/h, Gust: 29 mph , 46 km/h
Temperature: 45°F , 7°C
Wind Chill: 39°F , 4°C
Dew Point: 28°F , -2°C
Humidity: 53%
Barometer: 29.69 inHg , 1005.4 hPa
Clouds: Clear
Visibility: 10 miles , 16 km
2021/02/25 07:53 KBAF 250753Z AUTO 28010G25KT 10SM CLR 07/M02 A2969 RMK AO2 PK WND 30027/0729 SLP058 T00721022